createdAt,value
2023-04-19T00:00:43.603Z,10.80
2023-04-19T00:03:11.234Z,10.80
2023-04-19T00:05:41.759Z,10.80
2023-04-19T00:08:08.666Z,10.80
2023-04-19T00:10:39.767Z,10.80
2023-04-19T00:13:06.860Z,10.90
2023-04-19T00:15:34.947Z,10.90
2023-04-19T00:18:01.560Z,10.80
2023-04-19T00:20:28.090Z,10.90
2023-04-19T00:22:54.610Z,10.80
2023-04-19T00:25:21.118Z,10.90
2023-04-19T00:27:47.775Z,10.90
2023-04-19T00:30:14.734Z,10.90
2023-04-19T00:32:41.384Z,10.80
2023-04-19T00:35:08.305Z,10.80
2023-04-19T00:37:34.835Z,10.80
2023-04-19T00:40:01.408Z,10.80
2023-04-19T00:42:27.905Z,10.80
2023-04-19T00:44:54.422Z,10.80
2023-04-19T00:47:21.350Z,10.80
2023-04-19T00:49:48.090Z,10.80
2023-04-19T00:52:14.645Z,10.80
2023-04-19T00:54:43.019Z,10.80
2023-04-19T00:57:09.549Z,10.80
2023-04-19T00:59:36.224Z,10.80
2023-04-19T01:02:02.801Z,10.80
2023-04-19T01:04:29.836Z,10.70
2023-04-19T01:06:57.288Z,10.70
2023-04-19T01:09:23.817Z,10.70
2023-04-19T01:11:50.826Z,10.70
2023-04-19T01:14:17.477Z,10.60
2023-04-19T01:16:45.411Z,10.60
2023-04-19T01:19:12.352Z,10.70
2023-04-19T01:21:40.016Z,10.60
2023-04-19T01:24:07.093Z,10.50
2023-04-19T01:26:33.695Z,10.50
2023-04-19T01:29:00.238Z,10.40
2023-04-19T01:31:26.792Z,10.40
2023-04-19T01:33:53.289Z,10.40
2023-04-19T01:36:20.042Z,10.40
2023-04-19T01:38:47.689Z,10.50
2023-04-19T01:41:14.450Z,10.50
2023-04-19T01:43:40.967Z,10.50
2023-04-19T01:46:07.489Z,10.50
2023-04-19T01:48:34.022Z,10.50
2023-04-19T01:51:00.674Z,10.40
2023-04-19T01:53:27.185Z,10.40
2023-04-19T01:55:53.761Z,10.40
2023-04-19T01:58:20.806Z,10.40
2023-04-19T02:00:47.469Z,10.40
2023-04-19T02:03:14.273Z,10.30
2023-04-19T02:05:41.033Z,10.20
2023-04-19T02:08:07.556Z,10.10
2023-04-19T02:10:34.073Z,10.00
2023-04-19T02:13:00.597Z,9.90
2023-04-19T02:15:27.119Z,9.70
2023-04-19T02:17:53.988Z,9.50
2023-04-19T02:20:20.570Z,9.40
2023-04-19T02:22:47.783Z,9.20
2023-04-19T02:25:15.521Z,9.10
2023-04-19T02:27:42.161Z,9.00
2023-04-19T02:30:09.501Z,8.90
2023-04-19T02:32:36.628Z,8.80
2023-04-19T02:35:03.362Z,8.80
2023-04-19T02:37:29.898Z,8.70
2023-04-19T02:39:56.646Z,8.60
2023-04-19T02:42:23.143Z,8.60
2023-04-19T02:44:49.654Z,8.50
2023-04-19T02:47:16.160Z,8.50
2023-04-19T02:49:42.667Z,8.50
2023-04-19T02:52:09.202Z,8.40
2023-04-19T02:54:35.757Z,8.40
2023-04-19T02:57:02.283Z,8.40
2023-04-19T02:59:28.767Z,8.40
2023-04-19T03:01:55.399Z,8.40
2023-04-19T03:04:22.046Z,8.30
2023-04-19T03:06:48.616Z,8.20
2023-04-19T03:09:15.230Z,8.20
2023-04-19T03:11:41.724Z,8.20
2023-04-19T03:14:08.224Z,8.20
2023-04-19T03:16:34.772Z,8.40
2023-04-19T03:19:01.380Z,8.50
2023-04-19T03:21:29.016Z,8.60
2023-04-19T03:23:55.946Z,8.70
2023-04-19T03:26:22.615Z,8.90
2023-04-19T03:28:49.353Z,8.90
2023-04-19T03:31:15.875Z,9.10
2023-04-19T03:33:42.494Z,9.20
2023-04-19T03:36:09.339Z,9.30
2023-04-19T03:38:36.992Z,9.50
2023-04-19T03:41:03.563Z,9.50
2023-04-19T03:43:30.123Z,9.60
2023-04-19T03:45:56.691Z,9.70
2023-04-19T03:48:23.265Z,9.80
2023-04-19T03:50:49.824Z,9.90
2023-04-19T03:53:18.742Z,9.90
2023-04-19T03:55:45.775Z,10.00
2023-04-19T03:58:12.320Z,10.10
2023-04-19T04:00:38.897Z,10.10
2023-04-19T04:03:05.541Z,10.10
2023-04-19T04:05:32.345Z,10.20
2023-04-19T04:07:59.054Z,10.20
2023-04-19T04:10:25.871Z,10.20
2023-04-19T04:12:52.382Z,10.20
2023-04-19T04:15:18.904Z,10.20
2023-04-19T04:17:45.449Z,10.20
2023-04-19T04:20:13.367Z,10.20
2023-04-19T04:22:43.840Z,10.20
2023-04-19T04:25:10.446Z,10.20
2023-04-19T04:27:37.168Z,10.20
2023-04-19T04:30:04.877Z,10.20
2023-04-19T04:32:35.644Z,10.20
2023-04-19T04:35:03.334Z,10.30
2023-04-19T04:37:33.820Z,10.30
2023-04-19T04:40:01.502Z,10.30
2023-04-19T04:42:28.088Z,10.30
2023-04-19T04:44:57.771Z,10.30
2023-04-19T04:47:24.718Z,10.30
2023-04-19T04:49:52.496Z,10.30
2023-04-19T04:52:19.044Z,10.40
2023-04-19T04:54:45.537Z,10.40
2023-04-19T04:57:12.051Z,10.30
2023-04-19T04:59:38.576Z,10.40
2023-04-19T05:02:05.260Z,10.40
2023-04-19T05:04:31.983Z,10.40
2023-04-19T05:06:58.547Z,10.40
2023-04-19T05:09:25.145Z,10.40
2023-04-19T05:11:51.692Z,10.40
2023-04-19T05:14:18.260Z,10.40
2023-04-19T05:16:44.869Z,10.40
2023-04-19T05:19:11.542Z,10.40
2023-04-19T05:21:38.236Z,10.40
2023-04-19T05:24:05.331Z,10.50
2023-04-19T05:26:32.078Z,10.50
2023-04-19T05:28:59.067Z,10.50
2023-04-19T05:31:25.867Z,10.60
2023-04-19T05:33:52.448Z,10.60
2023-04-19T05:36:18.940Z,10.60
2023-04-19T05:38:45.708Z,10.70
2023-04-19T05:41:12.263Z,10.70
2023-04-19T05:43:38.755Z,10.80
2023-04-19T05:46:05.481Z,10.80
2023-04-19T05:48:32.020Z,10.80
2023-04-19T05:50:59.522Z,10.80
2023-04-19T05:53:26.070Z,10.80
2023-04-19T05:55:52.690Z,10.80
2023-04-19T05:58:19.298Z,10.90
2023-04-19T06:00:46.229Z,10.90
2023-04-19T06:03:13.104Z,10.90
2023-04-19T06:05:40.793Z,10.90
2023-04-19T06:08:09.266Z,10.90
2023-04-19T06:10:52.735Z,10.90
2023-04-19T06:13:21.188Z,10.90
2023-04-19T06:15:47.990Z,11.00
2023-04-19T06:18:18.636Z,11.00
2023-04-19T06:20:46.610Z,11.00
2023-04-19T06:23:14.681Z,11.00
2023-04-19T06:25:41.251Z,11.10
2023-04-19T06:28:07.836Z,11.10
2023-04-19T06:30:34.335Z,11.10
2023-04-19T06:33:00.917Z,11.20
2023-04-19T06:35:27.793Z,11.20
2023-04-19T06:37:54.298Z,11.20
2023-04-19T06:40:20.994Z,11.20
2023-04-19T06:42:47.518Z,11.40
2023-04-19T06:45:15.946Z,11.40
2023-04-19T06:47:42.640Z,11.50
2023-04-19T06:50:10.560Z,11.60
2023-04-19T06:52:37.597Z,11.70
2023-04-19T06:55:04.790Z,11.80
2023-04-19T06:57:31.312Z,12.10
2023-04-19T06:59:58.453Z,12.20
2023-04-19T07:02:25.485Z,12.50
2023-04-19T07:04:52.200Z,12.70
2023-04-19T07:07:18.883Z,12.80
2023-04-19T07:09:45.561Z,12.90
2023-04-19T07:12:12.051Z,13.20
2023-04-19T07:14:38.599Z,13.40
2023-04-19T07:17:06.100Z,13.80
2023-04-19T07:19:33.001Z,14.00
2023-04-19T07:21:59.812Z,14.40
2023-04-19T07:24:27.839Z,14.50
2023-04-19T07:26:54.546Z,14.80
2023-04-19T07:29:21.132Z,15.40
2023-04-19T07:31:47.833Z,16.00
2023-04-19T07:34:14.691Z,16.40
2023-04-19T07:36:41.415Z,16.30
2023-04-19T07:39:08.081Z,16.40
2023-04-19T07:41:36.123Z,16.80
2023-04-19T07:44:03.197Z,17.00
2023-04-19T07:46:30.128Z,17.00
2023-04-19T07:48:56.696Z,16.40
2023-04-19T07:51:24.586Z,16.70
2023-04-19T07:53:51.164Z,17.00
2023-04-19T07:56:19.521Z,17.10
2023-04-19T07:58:50.849Z,17.00
2023-04-19T08:01:20.960Z,17.10
2023-04-19T08:03:47.762Z,17.60
2023-04-19T08:06:16.087Z,17.50
2023-04-19T08:08:42.598Z,17.20
2023-04-19T08:11:09.107Z,17.10
2023-04-19T08:13:35.900Z,17.10
2023-04-19T08:18:32.996Z,17.80
2023-04-19T08:20:59.611Z,18.00
2023-04-19T08:23:34.717Z,18.10
2023-04-19T08:26:08.049Z,18.10
2023-04-19T08:28:34.558Z,18.20
2023-04-19T08:31:01.099Z,18.00
2023-04-19T08:33:28.819Z,18.50
2023-04-19T08:35:55.380Z,19.10
2023-04-19T08:38:21.905Z,18.60
2023-04-19T08:40:52.220Z,18.70
2023-04-19T08:43:19.895Z,18.40
2023-04-19T08:45:50.885Z,18.70
2023-04-19T08:48:18.803Z,19.00
2023-04-19T08:51:01.240Z,19.50
2023-04-19T08:53:34.129Z,19.40
2023-04-19T09:01:04.971Z,19.00
2023-04-19T09:03:36.580Z,19.30
2023-04-19T09:06:11.971Z,19.70
2023-04-19T09:08:40.978Z,19.90
2023-04-19T09:11:07.850Z,20.20
2023-04-19T09:13:38.140Z,20.20
2023-04-19T09:16:05.698Z,20.60
2023-04-19T09:18:35.843Z,21.30
2023-04-19T09:21:05.130Z,21.20
2023-04-19T09:23:31.702Z,21.30
2023-04-19T09:26:19.501Z,21.20
2023-04-19T09:29:06.911Z,20.90
2023-04-19T09:31:51.014Z,20.70
2023-04-19T09:34:19.339Z,20.60
2023-04-19T09:36:48.911Z,20.30
2023-04-19T09:39:33.768Z,20.40
2023-04-19T09:42:00.592Z,20.60
2023-04-19T09:46:57.832Z,20.90
2023-04-19T09:49:37.624Z,21.40
2023-04-19T09:52:14.766Z,22.00
2023-04-19T09:54:41.744Z,22.00
2023-04-19T09:57:08.719Z,21.50
2023-04-19T09:59:35.302Z,21.20
2023-04-19T10:02:04.711Z,21.40
2023-04-19T10:04:50.058Z,21.70
2023-04-19T10:07:30.038Z,21.50
2023-04-19T10:10:11.697Z,21.50
2023-04-19T10:13:07.642Z,21.00
2023-04-19T10:18:06.529Z,21.60
2023-04-19T10:20:37.737Z,21.30
2023-04-19T10:23:09.037Z,21.60
2023-04-19T10:25:38.393Z,21.70
2023-04-19T10:28:05.334Z,21.30
2023-04-19T10:30:31.956Z,21.40
2023-04-19T10:33:00.079Z,21.30
2023-04-19T10:35:33.450Z,21.00
2023-04-19T10:38:16.355Z,21.30
2023-04-19T10:40:58.038Z,21.30
2023-04-19T10:43:29.571Z,22.20
2023-04-19T10:46:18.216Z,22.60
2023-04-19T10:49:01.611Z,23.00
2023-04-19T10:51:36.139Z,22.90
2023-04-19T10:54:07.259Z,23.00
2023-04-19T10:56:33.960Z,23.00
2023-04-19T10:59:12.955Z,22.90
2023-04-19T11:01:56.050Z,22.70
2023-04-19T11:04:44.361Z,22.50
2023-04-19T11:07:11.031Z,23.00
2023-04-19T11:09:45.758Z,23.10
2023-04-19T11:12:16.475Z,23.20
2023-04-19T11:14:45.200Z,23.50
2023-04-19T11:17:32.194Z,23.30
2023-04-19T11:20:09.210Z,23.00
2023-04-19T11:22:37.092Z,22.90
2023-04-19T11:25:18.865Z,23.10
2023-04-19T11:27:47.284Z,22.80
2023-04-19T11:30:19.929Z,22.70
2023-04-19T11:32:54.310Z,23.00
2023-04-19T11:35:25.817Z,23.70
2023-04-19T11:37:53.903Z,23.40
2023-04-19T11:40:22.069Z,23.90
2023-04-19T11:42:55.088Z,24.10
2023-04-19T11:45:31.204Z,24.10
2023-04-19T11:48:00.831Z,23.70
2023-04-19T11:50:37.549Z,23.60
2023-04-19T11:53:18.896Z,23.90
2023-04-19T11:55:53.628Z,24.00
2023-04-19T11:58:43.745Z,24.20
2023-04-19T12:01:19.618Z,23.90
2023-04-19T12:03:54.533Z,23.10
2023-04-19T12:06:26.748Z,23.30
2023-04-19T12:08:54.771Z,23.90
2023-04-19T12:11:26.715Z,23.80
2023-04-19T12:14:12.635Z,24.20
2023-04-19T12:16:39.615Z,23.70
2023-04-19T12:19:14.643Z,24.20
2023-04-19T12:21:41.480Z,24.30
2023-04-19T12:24:08.572Z,23.90
2023-04-19T12:26:36.174Z,24.00
2023-04-19T12:29:03.655Z,24.20
2023-04-19T12:31:33.419Z,24.50
2023-04-19T12:33:59.991Z,23.60
2023-04-19T12:36:26.639Z,23.70
2023-04-19T12:38:53.167Z,24.10
2023-04-19T12:41:19.678Z,24.60
2023-04-19T12:43:46.200Z,24.90
2023-04-19T12:46:12.771Z,24.70
2023-04-19T12:48:39.648Z,24.70
2023-04-19T12:51:06.151Z,24.90
2023-04-19T12:53:33.208Z,24.30
2023-04-19T12:55:59.862Z,24.50
2023-04-19T12:58:28.214Z,24.70
2023-04-19T13:00:55.365Z,25.10
2023-04-19T13:03:21.978Z,25.00
2023-04-19T13:05:49.017Z,25.50
2023-04-19T13:08:15.888Z,25.80
2023-04-19T13:10:42.416Z,25.40
2023-04-19T13:13:08.988Z,25.90
2023-04-19T13:15:35.680Z,25.60
2023-04-19T13:18:02.287Z,25.50
2023-04-19T13:20:29.068Z,25.30
2023-04-19T13:22:55.571Z,24.80
2023-04-19T13:25:22.245Z,26.10
2023-04-19T13:27:49.012Z,25.50
2023-04-19T13:30:15.789Z,24.90
2023-04-19T13:32:42.763Z,24.90
2023-04-19T13:35:09.628Z,25.30
2023-04-19T13:37:36.218Z,25.10
2023-04-19T13:40:17.526Z,25.10
2023-04-19T13:42:47.710Z,25.20
2023-04-19T13:45:14.306Z,25.70
2023-04-19T13:47:40.909Z,25.90
2023-04-19T13:50:07.937Z,25.90
2023-04-19T13:52:34.501Z,26.20
2023-04-19T13:55:01.032Z,26.80
2023-04-19T13:57:27.571Z,26.50
2023-04-19T13:59:54.301Z,26.40
2023-04-19T14:02:21.138Z,26.70
2023-04-19T14:04:47.966Z,26.60
2023-04-19T14:07:14.568Z,26.40
2023-04-19T14:09:42.288Z,26.40
2023-04-19T14:12:09.181Z,26.20
2023-04-19T14:14:35.755Z,26.10
2023-04-19T14:17:02.578Z,26.20
2023-04-19T14:19:29.071Z,24.50
2023-04-19T14:21:55.771Z,24.50
2023-04-19T14:24:22.514Z,25.20
2023-04-19T14:26:59.943Z,25.50
2023-04-19T14:29:33.873Z,26.10
2023-04-19T14:32:07.393Z,26.50
2023-04-19T14:34:43.475Z,25.90
2023-04-19T14:37:10.060Z,25.80
2023-04-19T14:39:37.036Z,26.30
2023-04-19T14:42:03.789Z,26.70
2023-04-19T14:44:30.397Z,26.70
2023-04-19T14:46:56.988Z,26.60
2023-04-19T14:49:23.510Z,26.00
2023-04-19T14:51:52.270Z,26.00
2023-04-19T14:54:18.791Z,26.20
2023-04-19T14:56:45.352Z,25.40
2023-04-19T14:59:11.918Z,24.40
2023-04-19T15:01:38.509Z,25.00
2023-04-19T15:04:05.272Z,24.70
2023-04-19T15:06:32.243Z,25.20
2023-04-19T15:08:58.771Z,25.40
2023-04-19T15:11:25.409Z,25.40
2023-04-19T15:13:52.142Z,25.00
2023-04-19T15:16:18.728Z,25.40
2023-04-19T15:18:45.468Z,24.30
2023-04-19T15:21:12.008Z,24.60
2023-04-19T15:23:38.595Z,24.00
2023-04-19T15:26:05.118Z,24.00
2023-04-19T15:28:35.037Z,23.50
2023-04-19T15:31:04.108Z,23.50
2023-04-19T15:33:30.906Z,23.40
2023-04-19T15:35:58.359Z,22.90
2023-04-19T15:38:27.326Z,23.10
2023-04-19T15:40:57.936Z,23.00
2023-04-19T15:43:25.498Z,23.20
2023-04-19T15:45:52.517Z,23.70
2023-04-19T15:48:22.583Z,23.50
2023-04-19T15:50:49.180Z,22.80
2023-04-19T15:53:15.881Z,22.70
2023-04-19T15:55:42.549Z,23.00
2023-04-19T15:58:09.114Z,22.80
2023-04-19T16:00:36.010Z,23.40
2023-04-19T16:03:02.775Z,23.60
2023-04-19T16:05:29.403Z,22.70
2023-04-19T16:08:07.630Z,22.10
2023-04-19T16:10:34.377Z,22.70
2023-04-19T16:13:01.268Z,23.20
2023-04-19T16:15:28.462Z,23.00
2023-04-19T16:17:55.357Z,22.90
2023-04-19T16:20:22.059Z,23.40
2023-04-19T16:22:48.993Z,23.10
2023-04-19T16:25:16.486Z,23.40
2023-04-19T16:27:44.514Z,23.00
2023-04-19T16:30:11.932Z,22.40
2023-04-19T16:32:38.727Z,21.90
2023-04-19T16:35:06.906Z,21.90
2023-04-19T16:37:34.089Z,21.60
2023-04-19T16:40:05.235Z,21.20
2023-04-19T16:42:31.724Z,20.70
2023-04-19T16:44:58.211Z,21.20
2023-04-19T16:47:24.894Z,21.10
2023-04-19T16:49:51.463Z,21.20
2023-04-19T16:52:18.009Z,20.90
2023-04-19T16:54:44.790Z,20.40
2023-04-19T16:57:11.519Z,20.80
2023-04-19T16:59:38.063Z,20.90
2023-04-19T17:02:04.990Z,20.90
2023-04-19T17:04:32.308Z,20.90
2023-04-19T17:06:58.993Z,20.50
2023-04-19T17:09:25.542Z,20.00
2023-04-19T17:11:52.098Z,20.20
2023-04-19T17:14:19.051Z,20.30
2023-04-19T17:16:45.893Z,19.90
2023-04-19T17:19:12.649Z,19.90
2023-04-19T17:21:39.188Z,19.50
2023-04-19T17:24:05.851Z,18.90
2023-04-19T17:26:32.519Z,18.10
2023-04-19T17:29:01.189Z,18.10
2023-04-19T17:31:28.755Z,18.00
2023-04-19T17:33:55.748Z,18.00
2023-04-19T17:36:22.352Z,17.90
2023-04-19T17:38:48.852Z,17.70
2023-04-19T17:41:18.550Z,17.30
2023-04-19T17:43:46.019Z,17.00
2023-04-19T17:46:13.277Z,16.90
2023-04-19T17:48:39.859Z,16.80
2023-04-19T17:51:07.655Z,16.30
2023-04-19T17:53:34.534Z,15.90
2023-04-19T17:56:01.190Z,15.60
2023-04-19T17:58:27.701Z,15.10
2023-04-19T18:00:54.272Z,15.00
2023-04-19T18:03:20.990Z,14.80
2023-04-19T18:05:47.647Z,14.70
2023-04-19T18:08:14.196Z,14.60
2023-04-19T18:10:40.721Z,14.60
2023-04-19T18:13:07.251Z,14.50
2023-04-19T18:15:33.819Z,14.40
2023-04-19T18:18:00.490Z,14.30
2023-04-19T18:20:27.082Z,14.20
2023-04-19T18:22:53.667Z,13.90
2023-04-19T18:25:20.289Z,13.90
2023-04-19T18:27:48.469Z,13.60
2023-04-19T18:30:15.047Z,13.30
2023-04-19T18:32:41.660Z,13.10
2023-04-19T18:35:09.878Z,12.80
2023-04-19T18:37:36.546Z,12.60
2023-04-19T18:40:06.868Z,12.30
2023-04-19T18:42:33.444Z,12.10
2023-04-19T18:45:00.295Z,11.90
2023-04-19T18:47:26.992Z,11.70
2023-04-19T18:50:04.536Z,11.50
2023-04-19T18:52:33.087Z,11.40
2023-04-19T18:54:59.708Z,11.20
2023-04-19T18:57:27.693Z,11.00
2023-04-19T18:59:56.005Z,10.90
2023-04-19T19:02:22.691Z,10.80
2023-04-19T19:04:56.901Z,10.70
2023-04-19T19:07:35.431Z,10.60
2023-04-19T19:10:15.970Z,10.40
2023-04-19T19:12:45.517Z,10.30
2023-04-19T19:15:12.940Z,10.20
2023-04-19T19:17:39.577Z,10.30
2023-04-19T19:20:06.991Z,10.20
2023-04-19T19:22:34.142Z,10.30
2023-04-19T19:25:01.346Z,10.30
2023-04-19T19:27:31.259Z,10.20
2023-04-19T19:29:58.667Z,10.20
2023-04-19T19:32:25.422Z,10.20
2023-04-19T19:34:56.570Z,10.10
2023-04-19T19:37:28.960Z,10.00
2023-04-19T19:39:56.849Z,9.90
2023-04-19T19:42:23.919Z,9.80
2023-04-19T19:44:55.201Z,9.80
2023-04-19T19:47:24.581Z,9.70
2023-04-19T19:50:34.982Z,9.70
2023-04-19T19:52:37.806Z,9.60
2023-04-19T19:55:04.724Z,9.50
2023-04-19T19:58:20.635Z,9.40
2023-04-19T20:00:42.098Z,9.30
2023-04-19T20:03:06.613Z,9.30
2023-04-19T20:05:33.752Z,9.30
2023-04-19T20:08:12.156Z,9.20
2023-04-19T20:10:41.312Z,9.20
2023-04-19T20:13:08.216Z,9.20
2023-04-19T20:15:36.611Z,9.20
2023-04-19T20:18:04.253Z,9.10
2023-04-19T20:20:30.879Z,9.10
2023-04-19T20:22:57.554Z,9.00
2023-04-19T20:25:24.631Z,9.00
2023-04-19T20:27:51.135Z,9.00
2023-04-19T20:30:17.717Z,8.90
2023-04-19T20:32:44.320Z,8.80
2023-04-19T20:35:12.065Z,8.70
2023-04-19T20:37:42.096Z,8.70
2023-04-19T20:40:11.730Z,8.60
2023-04-19T20:42:38.676Z,8.50
2023-04-19T20:45:06.837Z,8.50
2023-04-19T20:47:33.700Z,8.40
2023-04-19T20:50:00.392Z,8.40
2023-04-19T20:52:26.908Z,8.40
2023-04-19T20:54:55.455Z,8.30
2023-04-19T20:57:22.339Z,8.20
2023-04-19T20:59:50.268Z,8.20
2023-04-19T21:02:16.911Z,8.20
2023-04-19T21:04:43.576Z,8.20
2023-04-19T21:07:10.352Z,8.20
2023-04-19T21:09:37.034Z,8.10
2023-04-19T21:12:03.754Z,8.10
2023-04-19T21:14:33.222Z,8.00
2023-04-19T21:17:01.336Z,8.00
2023-04-19T21:19:27.928Z,7.90
2023-04-19T21:21:54.553Z,7.90
2023-04-19T21:24:21.382Z,7.80
2023-04-19T21:26:47.889Z,7.70
2023-04-19T21:29:14.955Z,7.60
2023-04-19T21:31:42.053Z,7.50
2023-04-19T21:34:08.667Z,7.50
2023-04-19T21:36:35.308Z,7.50
2023-04-19T21:39:01.854Z,7.40
2023-04-19T21:41:28.534Z,7.40
2023-04-19T21:43:55.181Z,7.30
2023-04-19T21:46:21.731Z,7.20
2023-04-19T21:48:48.273Z,7.20
2023-04-19T21:51:14.883Z,7.20
2023-04-19T21:53:41.468Z,7.20
2023-04-19T21:56:08.811Z,7.10
2023-04-19T21:58:35.477Z,7.10
2023-04-19T22:01:02.026Z,7.00
2023-04-19T22:03:28.950Z,6.90
2023-04-19T22:05:55.622Z,6.90
2023-04-19T22:08:22.702Z,6.90
2023-04-19T22:10:50.464Z,6.80
2023-04-19T22:13:17.504Z,6.80
2023-04-19T22:15:44.063Z,6.70
2023-04-19T22:18:10.690Z,6.60
2023-04-19T22:20:38.248Z,6.70
2023-04-19T22:23:04.831Z,6.70
2023-04-19T22:25:31.622Z,6.70
2023-04-19T22:27:58.343Z,6.60
2023-04-19T22:30:24.910Z,6.50
2023-04-19T22:32:51.813Z,6.30
2023-04-19T22:35:19.585Z,6.10
2023-04-19T22:37:47.890Z,6.00
2023-04-19T22:40:14.472Z,5.90
2023-04-19T22:42:41.011Z,5.70
2023-04-19T22:45:08.169Z,5.60
2023-04-19T22:47:34.794Z,5.40
2023-04-19T22:50:01.382Z,5.30
2023-04-19T22:52:27.918Z,5.20
2023-04-19T22:54:54.469Z,5.00
2023-04-19T22:57:20.988Z,4.90
2023-04-19T22:59:47.518Z,4.80
2023-04-19T23:02:14.084Z,4.70
2023-04-19T23:04:40.834Z,4.80
2023-04-19T23:07:08.104Z,4.70
2023-04-19T23:09:34.676Z,4.80
2023-04-19T23:12:01.297Z,5.00
2023-04-19T23:14:29.030Z,5.20
2023-04-19T23:16:55.661Z,5.30
2023-04-19T23:19:22.729Z,5.40
2023-04-19T23:21:50.166Z,5.30
2023-04-19T23:24:17.723Z,5.30
2023-04-19T23:26:44.268Z,5.30
2023-04-19T23:29:10.834Z,5.30
2023-04-19T23:31:37.401Z,5.20
2023-04-19T23:34:04.003Z,5.20
2023-04-19T23:36:31.079Z,5.00
2023-04-19T23:38:57.684Z,4.80
2023-04-19T23:41:24.200Z,4.70
2023-04-19T23:43:50.687Z,4.60
2023-04-19T23:46:17.287Z,4.50
2023-04-19T23:48:43.866Z,4.40
2023-04-19T23:51:12.287Z,4.30
2023-04-19T23:53:38.896Z,4.20
2023-04-19T23:56:05.777Z,4.20
2023-04-19T23:58:32.308Z,4.20
